sensor_id;sensor_type;location;lat;lon;timestamp;P1;durP1;ratioP1;P2;durP2;ratioP2
70592;SDS011;58294;42.988;20.338;2023-04-15T00:00:09;28.63;;;25.02;;
70592;SDS011;58294;42.988;20.338;2023-04-15T00:02:36;27.63;;;16.60;;
70592;SDS011;58294;42.988;20.338;2023-04-15T00:05:03;21.10;;;17.13;;
70592;SDS011;58294;42.988;20.338;2023-04-15T00:07:30;24.33;;;18.92;;
70592;SDS011;58294;42.988;20.338;2023-04-15T00:09:57;65.88;;;50.08;;
70592;SDS011;58294;42.988;20.338;2023-04-15T00:12:23;61.85;;;41.97;;
70592;SDS011;58294;42.988;20.338;2023-04-15T00:14:49;69.05;;;47.53;;
70592;SDS011;58294;42.988;20.338;2023-04-15T00:17:16;53.17;;;43.75;;
70592;SDS011;58294;42.988;20.338;2023-04-15T00:19:41;36.47;;;31.27;;
70592;SDS011;58294;42.988;20.338;2023-04-15T00:22:09;38.45;;;30.85;;
70592;SDS011;58294;42.988;20.338;2023-04-15T00:24:36;44.33;;;33.38;;
70592;SDS011;58294;42.988;20.338;2023-04-15T00:27:02;42.30;;;31.00;;
70592;SDS011;58294;42.988;20.338;2023-04-15T00:29:28;37.65;;;27.48;;
70592;SDS011;58294;42.988;20.338;2023-04-15T00:31:54;35.03;;;26.02;;
70592;SDS011;58294;42.988;20.338;2023-04-15T00:34:23;51.70;;;35.67;;
70592;SDS011;58294;42.988;20.338;2023-04-15T00:36:49;29.80;;;21.85;;
70592;SDS011;58294;42.988;20.338;2023-04-15T00:39:16;22.58;;;18.17;;
70592;SDS011;58294;42.988;20.338;2023-04-15T00:41:42;17.67;;;15.00;;
70592;SDS011;58294;42.988;20.338;2023-04-15T00:44:09;18.15;;;15.63;;
70592;SDS011;58294;42.988;20.338;2023-04-15T00:46:35;59.45;;;43.75;;
70592;SDS011;58294;42.988;20.338;2023-04-15T00:49:03;45.20;;;36.42;;
70592;SDS011;58294;42.988;20.338;2023-04-15T00:51:30;48.97;;;35.50;;
70592;SDS011;58294;42.988;20.338;2023-04-15T00:53:58;51.33;;;35.05;;
70592;SDS011;58294;42.988;20.338;2023-04-15T00:56:24;46.40;;;36.60;;
70592;SDS011;58294;42.988;20.338;2023-04-15T00:58:52;46.85;;;35.03;;
70592;SDS011;58294;42.988;20.338;2023-04-15T01:01:19;68.68;;;45.45;;
70592;SDS011;58294;42.988;20.338;2023-04-15T01:03:47;42.38;;;33.35;;
70592;SDS011;58294;42.988;20.338;2023-04-15T01:06:15;76.53;;;56.60;;
70592;SDS011;58294;42.988;20.338;2023-04-15T01:08:42;75.10;;;53.35;;
70592;SDS011;58294;42.988;20.338;2023-04-15T01:11:08;38.53;;;28.98;;
70592;SDS011;58294;42.988;20.338;2023-04-15T01:13:35;31.33;;;25.38;;
70592;SDS011;58294;42.988;20.338;2023-04-15T01:16:01;49.42;;;38.58;;
70592;SDS011;58294;42.988;20.338;2023-04-15T01:18:27;42.47;;;29.48;;
70592;SDS011;58294;42.988;20.338;2023-04-15T01:20:54;43.53;;;29.00;;
70592;SDS011;58294;42.988;20.338;2023-04-15T01:23:20;37.35;;;28.83;;
70592;SDS011;58294;42.988;20.338;2023-04-15T01:25:49;33.70;;;30.05;;
70592;SDS011;58294;42.988;20.338;2023-04-15T01:28:17;42.20;;;30.40;;
70592;SDS011;58294;42.988;20.338;2023-04-15T01:30:44;25.70;;;20.83;;
70592;SDS011;58294;42.988;20.338;2023-04-15T01:33:10;27.27;;;20.60;;
70592;SDS011;58294;42.988;20.338;2023-04-15T01:35:36;101.32;;;69.25;;
70592;SDS011;58294;42.988;20.338;2023-04-15T01:38:04;78.70;;;52.67;;
70592;SDS011;58294;42.988;20.338;2023-04-15T01:40:32;51.55;;;37.30;;
70592;SDS011;58294;42.988;20.338;2023-04-15T01:42:59;37.88;;;31.08;;
70592;SDS011;58294;42.988;20.338;2023-04-15T01:45:26;46.60;;;32.08;;
70592;SDS011;58294;42.988;20.338;2023-04-15T01:47:52;74.18;;;53.45;;
70592;SDS011;58294;42.988;20.338;2023-04-15T01:50:18;50.05;;;38.50;;
70592;SDS011;58294;42.988;20.338;2023-04-15T01:52:45;78.07;;;58.17;;
70592;SDS011;58294;42.988;20.338;2023-04-15T01:55:12;45.38;;;34.95;;
70592;SDS011;58294;42.988;20.338;2023-04-15T01:57:38;117.18;;;85.88;;
70592;SDS011;58294;42.988;20.338;2023-04-15T02:00:05;95.57;;;63.55;;
70592;SDS011;58294;42.988;20.338;2023-04-15T02:02:34;92.25;;;64.30;;
70592;SDS011;58294;42.988;20.338;2023-04-15T02:05:00;223.30;;;148.38;;
70592;SDS011;58294;42.988;20.338;2023-04-15T02:07:25;275.17;;;172.48;;
70592;SDS011;58294;42.988;20.338;2023-04-15T02:09:53;192.57;;;117.78;;
70592;SDS011;58294;42.988;20.338;2023-04-15T02:12:19;84.07;;;52.00;;
70592;SDS011;58294;42.988;20.338;2023-04-15T02:14:45;64.13;;;40.80;;
70592;SDS011;58294;42.988;20.338;2023-04-15T02:17:11;27.35;;;17.92;;
70592;SDS011;58294;42.988;20.338;2023-04-15T02:19:37;26.83;;;18.17;;
70592;SDS011;58294;42.988;20.338;2023-04-15T02:22:04;27.45;;;18.65;;
70592;SDS011;58294;42.988;20.338;2023-04-15T02:24:32;25.00;;;18.20;;
70592;SDS011;58294;42.988;20.338;2023-04-15T02:26:58;25.40;;;18.73;;
70592;SDS011;58294;42.988;20.338;2023-04-15T02:29:23;29.17;;;21.58;;
70592;SDS011;58294;42.988;20.338;2023-04-15T02:31:49;27.70;;;22.15;;
70592;SDS011;58294;42.988;20.338;2023-04-15T02:34:15;24.88;;;20.27;;
70592;SDS011;58294;42.988;20.338;2023-04-15T02:36:41;24.95;;;18.58;;
70592;SDS011;58294;42.988;20.338;2023-04-15T02:39:07;20.45;;;16.38;;
70592;SDS011;58294;42.988;20.338;2023-04-15T02:41:33;17.08;;;15.05;;
70592;SDS011;58294;42.988;20.338;2023-04-15T02:43:59;18.58;;;15.55;;
70592;SDS011;58294;42.988;20.338;2023-04-15T02:46:25;16.05;;;14.02;;
70592;SDS011;58294;42.988;20.338;2023-04-15T02:48:51;20.90;;;16.13;;
70592;SDS011;58294;42.988;20.338;2023-04-15T02:51:21;26.00;;;18.85;;
70592;SDS011;58294;42.988;20.338;2023-04-15T02:53:47;24.73;;;18.25;;
70592;SDS011;58294;42.988;20.338;2023-04-15T02:56:14;63.67;;;42.83;;
70592;SDS011;58294;42.988;20.338;2023-04-15T02:58:41;29.88;;;23.80;;
70592;SDS011;58294;42.988;20.338;2023-04-15T03:01:08;20.05;;;15.95;;
70592;SDS011;58294;42.988;20.338;2023-04-15T03:03:34;24.17;;;16.88;;
70592;SDS011;58294;42.988;20.338;2023-04-15T03:06:00;24.58;;;18.20;;
70592;SDS011;58294;42.988;20.338;2023-04-15T03:08:26;25.20;;;17.85;;
70592;SDS011;58294;42.988;20.338;2023-04-15T03:10:52;21.00;;;15.85;;
70592;SDS011;58294;42.988;20.338;2023-04-15T03:13:18;17.38;;;13.88;;
70592;SDS011;58294;42.988;20.338;2023-04-15T03:15:45;38.85;;;32.50;;
70592;SDS011;58294;42.988;20.338;2023-04-15T03:18:12;24.67;;;17.98;;
70592;SDS011;58294;42.988;20.338;2023-04-15T03:20:38;22.65;;;16.70;;
70592;SDS011;58294;42.988;20.338;2023-04-15T03:23:04;18.55;;;16.02;;
70592;SDS011;58294;42.988;20.338;2023-04-15T03:25:30;19.85;;;16.63;;
70592;SDS011;58294;42.988;20.338;2023-04-15T03:27:55;19.10;;;15.13;;
70592;SDS011;58294;42.988;20.338;2023-04-15T03:30:22;22.20;;;16.70;;
70592;SDS011;58294;42.988;20.338;2023-04-15T03:32:48;21.17;;;17.42;;
70592;SDS011;58294;42.988;20.338;2023-04-15T03:35:13;20.83;;;16.38;;
70592;SDS011;58294;42.988;20.338;2023-04-15T03:37:39;20.52;;;15.48;;
70592;SDS011;58294;42.988;20.338;2023-04-15T03:40:05;28.35;;;21.02;;
70592;SDS011;58294;42.988;20.338;2023-04-15T03:42:32;24.48;;;18.83;;
70592;SDS011;58294;42.988;20.338;2023-04-15T03:44:58;26.83;;;19.65;;
70592;SDS011;58294;42.988;20.338;2023-04-15T03:47:24;28.55;;;21.50;;
70592;SDS011;58294;42.988;20.338;2023-04-15T03:49:50;37.50;;;29.50;;
70592;SDS011;58294;42.988;20.338;2023-04-15T03:52:16;33.38;;;25.38;;
70592;SDS011;58294;42.988;20.338;2023-04-15T03:54:41;29.27;;;23.17;;
70592;SDS011;58294;42.988;20.338;2023-04-15T03:57:07;26.98;;;19.30;;
70592;SDS011;58294;42.988;20.338;2023-04-15T03:59:33;43.40;;;33.75;;
70592;SDS011;58294;42.988;20.338;2023-04-15T04:01:59;25.88;;;20.65;;
70592;SDS011;58294;42.988;20.338;2023-04-15T04:04:24;31.17;;;24.50;;
70592;SDS011;58294;42.988;20.338;2023-04-15T04:06:50;29.67;;;24.73;;
70592;SDS011;58294;42.988;20.338;2023-04-15T04:09:16;29.00;;;21.08;;
70592;SDS011;58294;42.988;20.338;2023-04-15T04:11:42;13.55;;;12.07;;
70592;SDS011;58294;42.988;20.338;2023-04-15T04:14:09;21.90;;;14.15;;
70592;SDS011;58294;42.988;20.338;2023-04-15T04:16:35;16.45;;;13.40;;
70592;SDS011;58294;42.988;20.338;2023-04-15T04:19:01;109.20;;;86.05;;
70592;SDS011;58294;42.988;20.338;2023-04-15T04:21:27;189.88;;;153.32;;
70592;SDS011;58294;42.988;20.338;2023-04-15T04:23:52;164.02;;;122.75;;
70592;SDS011;58294;42.988;20.338;2023-04-15T04:26:18;138.77;;;102.75;;
70592;SDS011;58294;42.988;20.338;2023-04-15T04:28:44;92.30;;;70.07;;
70592;SDS011;58294;42.988;20.338;2023-04-15T04:31:10;31.70;;;24.20;;
70592;SDS011;58294;42.988;20.338;2023-04-15T04:33:36;24.60;;;19.10;;
70592;SDS011;58294;42.988;20.338;2023-04-15T04:36:02;52.53;;;41.22;;
70592;SDS011;58294;42.988;20.338;2023-04-15T04:38:28;49.40;;;35.53;;
70592;SDS011;58294;42.988;20.338;2023-04-15T04:40:53;58.95;;;50.00;;
70592;SDS011;58294;42.988;20.338;2023-04-15T04:43:19;317.23;;;183.80;;
70592;SDS011;58294;42.988;20.338;2023-04-15T04:45:45;1050.05;;;588.70;;
70592;SDS011;58294;42.988;20.338;2023-04-15T04:48:11;480.92;;;246.27;;
70592;SDS011;58294;42.988;20.338;2023-04-15T04:50:37;315.92;;;170.05;;
70592;SDS011;58294;42.988;20.338;2023-04-15T04:53:02;61.78;;;48.65;;
70592;SDS011;58294;42.988;20.338;2023-04-15T04:55:28;67.88;;;46.65;;
70592;SDS011;58294;42.988;20.338;2023-04-15T04:57:55;50.63;;;41.33;;
70592;SDS011;58294;42.988;20.338;2023-04-15T05:00:21;36.63;;;31.23;;
70592;SDS011;58294;42.988;20.338;2023-04-15T05:02:47;35.75;;;29.88;;
70592;SDS011;58294;42.988;20.338;2023-04-15T05:05:13;25.02;;;21.55;;
70592;SDS011;58294;42.988;20.338;2023-04-15T05:07:39;25.58;;;22.15;;
70592;SDS011;58294;42.988;20.338;2023-04-15T05:10:05;25.30;;;22.27;;
70592;SDS011;58294;42.988;20.338;2023-04-15T05:12:31;506.85;;;323.55;;
70592;SDS011;58294;42.988;20.338;2023-04-15T05:14:57;168.20;;;101.25;;
70592;SDS011;58294;42.988;20.338;2023-04-15T05:17:23;38.60;;;29.42;;
70592;SDS011;58294;42.988;20.338;2023-04-15T05:19:48;66.78;;;46.85;;
70592;SDS011;58294;42.988;20.338;2023-04-15T05:22:14;63.83;;;47.13;;
70592;SDS011;58294;42.988;20.338;2023-04-15T05:24:40;55.17;;;40.55;;
70592;SDS011;58294;42.988;20.338;2023-04-15T05:27:06;73.75;;;52.00;;
70592;SDS011;58294;42.988;20.338;2023-04-15T05:29:32;106.30;;;79.22;;
70592;SDS011;58294;42.988;20.338;2023-04-15T05:31:59;45.15;;;32.05;;
70592;SDS011;58294;42.988;20.338;2023-04-15T05:34:25;46.90;;;35.20;;
70592;SDS011;58294;42.988;20.338;2023-04-15T05:36:50;59.65;;;44.80;;
70592;SDS011;58294;42.988;20.338;2023-04-15T05:39:16;61.58;;;43.50;;
70592;SDS011;58294;42.988;20.338;2023-04-15T05:41:42;70.40;;;49.15;;
70592;SDS011;58294;42.988;20.338;2023-04-15T05:44:08;79.40;;;53.22;;
70592;SDS011;58294;42.988;20.338;2023-04-15T05:46:34;71.93;;;54.55;;
70592;SDS011;58294;42.988;20.338;2023-04-15T05:49:00;53.20;;;39.25;;
70592;SDS011;58294;42.988;20.338;2023-04-15T05:51:26;48.25;;;35.35;;
70592;SDS011;58294;42.988;20.338;2023-04-15T05:53:52;46.08;;;32.92;;
70592;SDS011;58294;42.988;20.338;2023-04-15T05:56:17;41.65;;;30.60;;
70592;SDS011;58294;42.988;20.338;2023-04-15T05:58:44;50.70;;;35.13;;
70592;SDS011;58294;42.988;20.338;2023-04-15T06:01:10;38.72;;;28.52;;
70592;SDS011;58294;42.988;20.338;2023-04-15T06:03:36;33.70;;;26.60;;
70592;SDS011;58294;42.988;20.338;2023-04-15T06:06:03;33.65;;;24.65;;
70592;SDS011;58294;42.988;20.338;2023-04-15T06:08:28;20.48;;;13.48;;
70592;SDS011;58294;42.988;20.338;2023-04-15T06:10:54;17.27;;;15.18;;
70592;SDS011;58294;42.988;20.338;2023-04-15T06:13:20;13.00;;;10.52;;
70592;SDS011;58294;42.988;20.338;2023-04-15T06:15:46;17.50;;;14.18;;
70592;SDS011;58294;42.988;20.338;2023-04-15T06:18:12;18.77;;;14.70;;
70592;SDS011;58294;42.988;20.338;2023-04-15T06:20:38;23.92;;;14.95;;
70592;SDS011;58294;42.988;20.338;2023-04-15T06:23:04;18.13;;;14.13;;
70592;SDS011;58294;42.988;20.338;2023-04-15T06:25:30;23.63;;;13.80;;
70592;SDS011;58294;42.988;20.338;2023-04-15T06:27:55;17.00;;;13.45;;
70592;SDS011;58294;42.988;20.338;2023-04-15T06:30:21;16.02;;;13.23;;
70592;SDS011;58294;42.988;20.338;2023-04-15T06:32:47;16.02;;;12.88;;
70592;SDS011;58294;42.988;20.338;2023-04-15T06:35:13;17.90;;;12.95;;
70592;SDS011;58294;42.988;20.338;2023-04-15T06:37:40;13.43;;;10.73;;
70592;SDS011;58294;42.988;20.338;2023-04-15T06:40:06;13.65;;;10.55;;
70592;SDS011;58294;42.988;20.338;2023-04-15T06:42:32;12.90;;;10.65;;
70592;SDS011;58294;42.988;20.338;2023-04-15T06:44:59;11.35;;;7.72;;
70592;SDS011;58294;42.988;20.338;2023-04-15T06:47:25;9.98;;;8.82;;
70592;SDS011;58294;42.988;20.338;2023-04-15T06:49:51;14.63;;;11.40;;
70592;SDS011;58294;42.988;20.338;2023-04-15T06:52:16;9.50;;;6.75;;
70592;SDS011;58294;42.988;20.338;2023-04-15T06:54:42;10.20;;;8.18;;
70592;SDS011;58294;42.988;20.338;2023-04-15T06:57:08;7.88;;;6.68;;
70592;SDS011;58294;42.988;20.338;2023-04-15T06:59:34;6.28;;;4.65;;
70592;SDS011;58294;42.988;20.338;2023-04-15T07:02:00;5.25;;;4.63;;
70592;SDS011;58294;42.988;20.338;2023-04-15T07:04:26;6.68;;;5.38;;
70592;SDS011;58294;42.988;20.338;2023-04-15T07:06:52;5.60;;;4.82;;
70592;SDS011;58294;42.988;20.338;2023-04-15T07:09:20;6.75;;;5.97;;
70592;SDS011;58294;42.988;20.338;2023-04-15T07:11:46;7.63;;;6.40;;
70592;SDS011;58294;42.988;20.338;2023-04-15T07:14:13;6.68;;;5.68;;
70592;SDS011;58294;42.988;20.338;2023-04-15T07:16:39;24.23;;;9.43;;
70592;SDS011;58294;42.988;20.338;2023-04-15T07:19:05;12.43;;;8.32;;
70592;SDS011;58294;42.988;20.338;2023-04-15T07:21:31;11.45;;;6.68;;
70592;SDS011;58294;42.988;20.338;2023-04-15T07:23:57;9.43;;;6.90;;
70592;SDS011;58294;42.988;20.338;2023-04-15T07:26:23;8.23;;;5.10;;
70592;SDS011;58294;42.988;20.338;2023-04-15T07:28:49;6.30;;;5.50;;
70592;SDS011;58294;42.988;20.338;2023-04-15T07:31:15;6.57;;;4.00;;
70592;SDS011;58294;42.988;20.338;2023-04-15T07:33:41;5.40;;;2.95;;
70592;SDS011;58294;42.988;20.338;2023-04-15T07:36:07;4.72;;;3.58;;
70592;SDS011;58294;42.988;20.338;2023-04-15T07:38:33;9.10;;;5.70;;
70592;SDS011;58294;42.988;20.338;2023-04-15T07:40:59;6.50;;;5.00;;
70592;SDS011;58294;42.988;20.338;2023-04-15T07:43:25;9.30;;;5.72;;
70592;SDS011;58294;42.988;20.338;2023-04-15T07:45:51;10.45;;;6.13;;
70592;SDS011;58294;42.988;20.338;2023-04-15T07:48:17;10.20;;;7.85;;
70592;SDS011;58294;42.988;20.338;2023-04-15T07:50:43;11.18;;;8.88;;
70592;SDS011;58294;42.988;20.338;2023-04-15T07:53:09;47.05;;;32.28;;
70592;SDS011;58294;42.988;20.338;2023-04-15T07:55:34;15.82;;;11.35;;
70592;SDS011;58294;42.988;20.338;2023-04-15T07:58:00;13.70;;;8.77;;
70592;SDS011;58294;42.988;20.338;2023-04-15T08:00:26;8.15;;;6.18;;
70592;SDS011;58294;42.988;20.338;2023-04-15T08:02:52;10.63;;;7.13;;
70592;SDS011;58294;42.988;20.338;2023-04-15T08:05:18;8.45;;;6.03;;
70592;SDS011;58294;42.988;20.338;2023-04-15T08:07:44;5.93;;;3.40;;
70592;SDS011;58294;42.988;20.338;2023-04-15T08:10:10;7.70;;;6.10;;
70592;SDS011;58294;42.988;20.338;2023-04-15T08:12:36;11.52;;;9.27;;
70592;SDS011;58294;42.988;20.338;2023-04-15T08:15:02;12.80;;;9.25;;
70592;SDS011;58294;42.988;20.338;2023-04-15T08:17:28;11.13;;;9.40;;
70592;SDS011;58294;42.988;20.338;2023-04-15T08:19:54;9.63;;;6.47;;
70592;SDS011;58294;42.988;20.338;2023-04-15T08:22:20;6.90;;;5.63;;
70592;SDS011;58294;42.988;20.338;2023-04-15T08:24:46;5.97;;;4.97;;
70592;SDS011;58294;42.988;20.338;2023-04-15T08:27:12;7.15;;;6.10;;
70592;SDS011;58294;42.988;20.338;2023-04-15T08:29:38;9.00;;;6.75;;
70592;SDS011;58294;42.988;20.338;2023-04-15T08:32:04;8.98;;;5.75;;
70592;SDS011;58294;42.988;20.338;2023-04-15T08:34:30;12.38;;;8.93;;
70592;SDS011;58294;42.988;20.338;2023-04-15T08:36:56;4.75;;;3.92;;
70592;SDS011;58294;42.988;20.338;2023-04-15T08:39:22;6.03;;;3.55;;
70592;SDS011;58294;42.988;20.338;2023-04-15T08:41:55;5.00;;;3.72;;
70592;SDS011;58294;42.988;20.338;2023-04-15T08:44:26;9.55;;;3.53;;
70592;SDS011;58294;42.988;20.338;2023-04-15T08:46:55;3.35;;;3.05;;
70592;SDS011;58294;42.988;20.338;2023-04-15T08:49:25;4.90;;;3.35;;
70592;SDS011;58294;42.988;20.338;2023-04-15T08:51:52;5.22;;;3.20;;
70592;SDS011;58294;42.988;20.338;2023-04-15T08:54:20;7.80;;;5.72;;
70592;SDS011;58294;42.988;20.338;2023-04-15T08:56:46;5.55;;;4.07;;
70592;SDS011;58294;42.988;20.338;2023-04-15T08:59:13;4.65;;;2.47;;
70592;SDS011;58294;42.988;20.338;2023-04-15T09:01:40;4.13;;;3.00;;
70592;SDS011;58294;42.988;20.338;2023-04-15T09:04:06;6.32;;;3.67;;
70592;SDS011;58294;42.988;20.338;2023-04-15T09:06:32;3.38;;;2.58;;
70592;SDS011;58294;42.988;20.338;2023-04-15T09:08:58;5.78;;;4.85;;
70592;SDS011;58294;42.988;20.338;2023-04-15T09:11:25;7.53;;;6.22;;
70592;SDS011;58294;42.988;20.338;2023-04-15T09:13:51;2.42;;;1.73;;
70592;SDS011;58294;42.988;20.338;2023-04-15T09:16:17;2.35;;;1.77;;
70592;SDS011;58294;42.988;20.338;2023-04-15T09:18:42;2.72;;;2.28;;
70592;SDS011;58294;42.988;20.338;2023-04-15T09:21:09;5.35;;;2.67;;
70592;SDS011;58294;42.988;20.338;2023-04-15T09:23:38;2.35;;;1.70;;
70592;SDS011;58294;42.988;20.338;2023-04-15T09:26:06;1.90;;;1.48;;
70592;SDS011;58294;42.988;20.338;2023-04-15T09:28:32;1.90;;;1.63;;
70592;SDS011;58294;42.988;20.338;2023-04-15T09:31:05;3.00;;;2.22;;
70592;SDS011;58294;42.988;20.338;2023-04-15T09:33:31;5.80;;;4.97;;
70592;SDS011;58294;42.988;20.338;2023-04-15T09:35:58;6.38;;;3.60;;
70592;SDS011;58294;42.988;20.338;2023-04-15T09:38:29;2.90;;;2.33;;
70592;SDS011;58294;42.988;20.338;2023-04-15T09:40:56;6.72;;;4.78;;
70592;SDS011;58294;42.988;20.338;2023-04-15T09:43:26;7.22;;;5.75;;
70592;SDS011;58294;42.988;20.338;2023-04-15T09:46:04;4.00;;;2.50;;
70592;SDS011;58294;42.988;20.338;2023-04-15T09:48:30;1.50;;;1.20;;
70592;SDS011;58294;42.988;20.338;2023-04-15T09:50:57;3.78;;;3.00;;
70592;SDS011;58294;42.988;20.338;2023-04-15T09:53:24;4.07;;;2.80;;
70592;SDS011;58294;42.988;20.338;2023-04-15T09:58:21;1.75;;;1.65;;
70592;SDS011;58294;42.988;20.338;2023-04-15T10:00:49;2.20;;;1.65;;
70592;SDS011;58294;42.988;20.338;2023-04-15T10:03:21;4.05;;;1.83;;
70592;SDS011;58294;42.988;20.338;2023-04-15T10:05:59;4.70;;;4.20;;
70592;SDS011;58294;42.988;20.338;2023-04-15T10:08:29;2.28;;;1.70;;
70592;SDS011;58294;42.988;20.338;2023-04-15T10:10:57;3.00;;;2.10;;
70592;SDS011;58294;42.988;20.338;2023-04-15T10:13:23;7.75;;;5.03;;
70592;SDS011;58294;42.988;20.338;2023-04-15T10:15:50;5.38;;;3.00;;
70592;SDS011;58294;42.988;20.338;2023-04-15T10:18:26;1.92;;;1.15;;
70592;SDS011;58294;42.988;20.338;2023-04-15T10:20:52;2.40;;;1.80;;
70592;SDS011;58294;42.988;20.338;2023-04-15T10:23:27;7.53;;;2.65;;
70592;SDS011;58294;42.988;20.338;2023-04-15T10:25:53;1.40;;;1.25;;
70592;SDS011;58294;42.988;20.338;2023-04-15T10:28:19;9.68;;;6.65;;
70592;SDS011;58294;42.988;20.338;2023-04-15T10:30:49;2.17;;;1.98;;
70592;SDS011;58294;42.988;20.338;2023-04-15T10:33:16;4.35;;;2.05;;
70592;SDS011;58294;42.988;20.338;2023-04-15T10:35:48;2.22;;;1.98;;
70592;SDS011;58294;42.988;20.338;2023-04-15T10:41:42;15.93;;;13.18;;
70592;SDS011;58294;42.988;20.338;2023-04-15T10:46:35;23.60;;;14.68;;
70592;SDS011;58294;42.988;20.338;2023-04-15T10:49:06;3.65;;;3.30;;
70592;SDS011;58294;42.988;20.338;2023-04-15T10:51:43;2.42;;;2.20;;
70592;SDS011;58294;42.988;20.338;2023-04-15T10:54:29;2.42;;;1.92;;
70592;SDS011;58294;42.988;20.338;2023-04-15T10:59:29;3.42;;;2.13;;
70592;SDS011;58294;42.988;20.338;2023-04-15T11:01:56;7.28;;;5.03;;
70592;SDS011;58294;42.988;20.338;2023-04-15T11:10:49;2.03;;;1.58;;
70592;SDS011;58294;42.988;20.338;2023-04-15T11:12:50;3.38;;;2.80;;
70592;SDS011;58294;42.988;20.338;2023-04-15T11:15:37;3.03;;;1.80;;
70592;SDS011;58294;42.988;20.338;2023-04-15T11:20:48;3.60;;;2.80;;
70592;SDS011;58294;42.988;20.338;2023-04-15T11:23:16;6.35;;;5.30;;
70592;SDS011;58294;42.988;20.338;2023-04-15T11:26:06;5.10;;;4.13;;
70592;SDS011;58294;42.988;20.338;2023-04-15T11:28:40;5.05;;;3.95;;
70592;SDS011;58294;42.988;20.338;2023-04-15T11:31:10;7.43;;;6.15;;
70592;SDS011;58294;42.988;20.338;2023-04-15T11:33:45;7.05;;;5.38;;
70592;SDS011;58294;42.988;20.338;2023-04-15T11:36:18;5.00;;;3.85;;
70592;SDS011;58294;42.988;20.338;2023-04-15T11:38:46;5.15;;;3.60;;
70592;SDS011;58294;42.988;20.338;2023-04-15T11:41:12;1.70;;;1.60;;
70592;SDS011;58294;42.988;20.338;2023-04-15T11:43:37;4.28;;;3.88;;
70592;SDS011;58294;42.988;20.338;2023-04-15T11:46:03;3.33;;;3.03;;
70592;SDS011;58294;42.988;20.338;2023-04-15T11:48:30;4.57;;;3.85;;
70592;SDS011;58294;42.988;20.338;2023-04-15T11:50:58;6.95;;;5.88;;
70592;SDS011;58294;42.988;20.338;2023-04-15T11:53:39;3.83;;;2.88;;
70592;SDS011;58294;42.988;20.338;2023-04-15T11:56:08;4.70;;;3.70;;
70592;SDS011;58294;42.988;20.338;2023-04-15T11:58:37;3.00;;;2.80;;
70592;SDS011;58294;42.988;20.338;2023-04-15T12:01:03;5.93;;;4.43;;
70592;SDS011;58294;42.988;20.338;2023-04-15T12:06:21;2.50;;;2.15;;
70592;SDS011;58294;42.988;20.338;2023-04-15T12:11:30;1.73;;;1.63;;
70592;SDS011;58294;42.988;20.338;2023-04-15T12:16:41;1.50;;;1.40;;
70592;SDS011;58294;42.988;20.338;2023-04-15T12:19:10;3.42;;;2.20;;
70592;SDS011;58294;42.988;20.338;2023-04-15T12:21:42;5.43;;;4.80;;
70592;SDS011;58294;42.988;20.338;2023-04-15T12:24:10;3.40;;;2.83;;
70592;SDS011;58294;42.988;20.338;2023-04-15T12:26:37;6.55;;;2.70;;
70592;SDS011;58294;42.988;20.338;2023-04-15T12:29:09;3.10;;;1.73;;
70592;SDS011;58294;42.988;20.338;2023-04-15T12:31:36;5.30;;;4.18;;
70592;SDS011;58294;42.988;20.338;2023-04-15T12:34:10;1.77;;;1.27;;
70592;SDS011;58294;42.988;20.338;2023-04-15T12:36:38;1.75;;;1.65;;
70592;SDS011;58294;42.988;20.338;2023-04-15T12:39:04;7.55;;;2.90;;
70592;SDS011;58294;42.988;20.338;2023-04-15T12:41:31;6.95;;;3.40;;
70592;SDS011;58294;42.988;20.338;2023-04-15T12:43:57;6.93;;;1.80;;
70592;SDS011;58294;42.988;20.338;2023-04-15T12:46:23;3.50;;;2.53;;
70592;SDS011;58294;42.988;20.338;2023-04-15T12:48:49;3.67;;;2.40;;
70592;SDS011;58294;42.988;20.338;2023-04-15T12:51:17;6.35;;;2.00;;
70592;SDS011;58294;42.988;20.338;2023-04-15T12:53:42;7.47;;;4.38;;
70592;SDS011;58294;42.988;20.338;2023-04-15T12:56:08;5.38;;;3.83;;
70592;SDS011;58294;42.988;20.338;2023-04-15T12:58:34;2.47;;;2.05;;
70592;SDS011;58294;42.988;20.338;2023-04-15T13:01:00;1.60;;;1.50;;
70592;SDS011;58294;42.988;20.338;2023-04-15T13:03:27;6.13;;;3.67;;
70592;SDS011;58294;42.988;20.338;2023-04-15T13:05:53;4.00;;;2.40;;
70592;SDS011;58294;42.988;20.338;2023-04-15T13:08:19;4.00;;;2.80;;
70592;SDS011;58294;42.988;20.338;2023-04-15T13:10:45;5.70;;;2.58;;
70592;SDS011;58294;42.988;20.338;2023-04-15T13:13:10;5.28;;;4.18;;
70592;SDS011;58294;42.988;20.338;2023-04-15T13:15:36;3.13;;;2.55;;
70592;SDS011;58294;42.988;20.338;2023-04-15T13:18:03;3.22;;;2.50;;
70592;SDS011;58294;42.988;20.338;2023-04-15T13:20:31;4.50;;;3.42;;
70592;SDS011;58294;42.988;20.338;2023-04-15T13:22:56;5.25;;;3.58;;
70592;SDS011;58294;42.988;20.338;2023-04-15T13:25:22;2.17;;;1.83;;
70592;SDS011;58294;42.988;20.338;2023-04-15T13:27:50;3.47;;;2.95;;
70592;SDS011;58294;42.988;20.338;2023-04-15T13:30:16;3.38;;;2.35;;
70592;SDS011;58294;42.988;20.338;2023-04-15T13:32:42;3.53;;;2.83;;
70592;SDS011;58294;42.988;20.338;2023-04-15T13:35:08;4.43;;;3.58;;
70592;SDS011;58294;42.988;20.338;2023-04-15T13:37:34;4.28;;;3.33;;
70592;SDS011;58294;42.988;20.338;2023-04-15T13:40:00;8.27;;;5.25;;
70592;SDS011;58294;42.988;20.338;2023-04-15T13:42:26;6.18;;;3.00;;
70592;SDS011;58294;42.988;20.338;2023-04-15T13:44:52;1.10;;;1.00;;
70592;SDS011;58294;42.988;20.338;2023-04-15T13:47:18;8.15;;;6.07;;
70592;SDS011;58294;42.988;20.338;2023-04-15T13:49:44;6.43;;;3.33;;
70592;SDS011;58294;42.988;20.338;2023-04-15T13:52:10;1.92;;;1.77;;
70592;SDS011;58294;42.988;20.338;2023-04-15T13:54:36;2.22;;;2.03;;
70592;SDS011;58294;42.988;20.338;2023-04-15T13:57:02;2.60;;;2.05;;
70592;SDS011;58294;42.988;20.338;2023-04-15T13:59:28;3.40;;;1.90;;
70592;SDS011;58294;42.988;20.338;2023-04-15T14:01:53;2.97;;;1.60;;
70592;SDS011;58294;42.988;20.338;2023-04-15T14:04:20;3.45;;;2.00;;
70592;SDS011;58294;42.988;20.338;2023-04-15T14:06:45;4.40;;;3.13;;
70592;SDS011;58294;42.988;20.338;2023-04-15T14:09:11;11.15;;;3.30;;
70592;SDS011;58294;42.988;20.338;2023-04-15T14:11:37;7.65;;;4.25;;
70592;SDS011;58294;42.988;20.338;2023-04-15T14:14:04;4.57;;;2.95;;
70592;SDS011;58294;42.988;20.338;2023-04-15T14:16:33;4.40;;;3.80;;
70592;SDS011;58294;42.988;20.338;2023-04-15T14:18:59;3.97;;;2.60;;
70592;SDS011;58294;42.988;20.338;2023-04-15T14:21:25;2.83;;;2.25;;
70592;SDS011;58294;42.988;20.338;2023-04-15T14:23:56;7.97;;;2.92;;
70592;SDS011;58294;42.988;20.338;2023-04-15T14:26:22;3.58;;;2.67;;
70592;SDS011;58294;42.988;20.338;2023-04-15T14:28:48;2.30;;;1.80;;
70592;SDS011;58294;42.988;20.338;2023-04-15T14:31:14;6.40;;;5.80;;
70592;SDS011;58294;42.988;20.338;2023-04-15T14:33:40;6.65;;;4.18;;
70592;SDS011;58294;42.988;20.338;2023-04-15T14:36:06;9.30;;;5.65;;
70592;SDS011;58294;42.988;20.338;2023-04-15T14:38:33;8.70;;;6.13;;
70592;SDS011;58294;42.988;20.338;2023-04-15T14:41:04;10.35;;;6.25;;
70592;SDS011;58294;42.988;20.338;2023-04-15T14:43:30;4.20;;;2.38;;
70592;SDS011;58294;42.988;20.338;2023-04-15T14:45:57;7.50;;;4.55;;